Latest Conditions
At L.F.Wade Int. Airport
Recorded at 8:55 pm
Mostly Cloudy
Temp.: 
20°C/69°F
Humidity: 
96%
Wind: 
W 17KT
or 20mph
UV Index: 
0
Island Observations
 
Observations
Tuesday, January 26, 2021

Observations are in local time and taken at least once an hour, or upon the start and end of specified events such as showers and thunderstorms.

Time Sky / Weather Wind Speed/Gusts Temp. R.H. Pressure
     knots (mph)  °C (°F)  %  mb / "Hg
 20:55 Mostly Cloudy  W 17/0 (20/0) 20(69) 96 1015 / 29.98
 19:55 Mostly Cloudy  W 17/0 (20/0) 20(69) 94 1015 / 29.96
 19:14 Overcast  W 17/0 (20/0) 20(69) 95 1014 / 29.95
 18:55 Overcast Rain W 18/0 (21/0) 20(69) 95 1014 / 29.94
 18:27 Overcast Rain W 18/0 (21/0) 20(68) 96 1014 / 29.94
 18:04 Mostly Cloudy  W 17/0 (20/0) 20(68) 95 1014 / 29.94
 17:55 Overcast Rain W 17/0 (20/0) 20(68) 96 1014 / 29.94
 17:38 Overcast Rain W 16/0 (18/0) 20(68) 97 1014 / 29.94
 16:55 Overcast Rain W 18/0 (21/0) 20(67) 98 1014 / 29.95
 16:44 Overcast Rain W 18/0 (21/0) 20(67) 97 1014 / 29.95
 15:55 Overcast Showers W 18/0 (21/0) 19(67) 96 1014 / 29.94
 15:14 Overcast Showers W 19/0 (22/0) 20(68) 87 1014 / 29.94
 14:55 Overcast  W 19/0 (22/0) 20(69) 84 1014 / 29.94
 13:55 Mostly Cloudy  WSW 22/0 (25/0) 21(69) 81 1014 / 29.94
 12:55 Mostly Cloudy  WSW 16/0 (18/0) 20(68) 82 1015 / 29.96
 11:55 Overcast  WSW 19/0 (22/0) 19(67) 83 1016 / 29.99
 10:55 Overcast  WSW 17/0 (20/0) 20(67) 80 1016 / 30.01
 10:38 Overcast  W 15/0 (17/0) 19(66) 82 1016 / 30.01
 09:55 Overcast Drizzle W 16/0 (18/0) 18(65) 84 1017 / 30.02
 08:55 Overcast Drizzle WSW 12/0 (14/0) 18(64) 87 1016 / 30.01
 07:55 Overcast Drizzle WSW 14/0 (16/0) 18(65) 77 1016 / 29.99
 06:55 Overcast Drizzle WSW 9/0 (10/0) 18(65) 76 1016 / 29.99
 06:02 Overcast Drizzle W 9/0 (10/0) 17(63) 90 1015 / 29.98
 05:55 Overcast  W 11/0 (13/0) 17(62) 91 1016 / 29.99
 05:42 Overcast  WNW 12/0 (14/0) 16(62) 92 1016 / 29.99
 05:05 Overcast Drizzle WNW 11/0 (13/0) 17(63) 86 1016 / 29.99
 04:55 Overcast  WNW 13/0 (15/0) 17(63) 84 1016 / 29.99
 03:55 Overcast  NW 11/0 (13/0) 16(61) 92 1016 / 30.00
 03:24 Overcast  NW 12/0 (14/0) 16(62) 92 1016 / 30.01
 03:09 Overcast Rain WNW 11/0 (13/0) 16(61) 90 1017 / 30.02
 03:00 Overcast Showers NW 11/0 (13/0) 16(61) 86 1016 / 30.01
 02:55 Overcast Showers WNW 11/0 (13/0) 16(62) 85 1017 / 30.02
 02:31 Overcast Showers NW 10/0 (12/0) 16(61) 86 1017 / 30.03
 01:55 Overcast Showers WNW 10/0 (12/0) 16(60) 92 1017 / 30.04
 01:44 Overcast Showers NW 9/0 (10/0) 16(60) 91 1017 / 30.04
 01:35 Overcast Showers NW 9/0 (10/0) 16(61) 88 1017 / 30.04
 00:55 Overcast Showers W 10/0 (12/0) 16(61) 86 1017 / 30.04
 23:55 Mostly Cloudy Showers W 9/0 (10/0) 16(60) 89 1018 / 30.05
 23:11 Mostly Cloudy Showers NW 10/0 (12/0) 16(61) 82 1018 / 30.06
 22:55 Mostly Cloudy Showers NW 10/0 (12/0) 17(62) 82 1018 / 30.05
 22:11 Mostly Cloudy Showers NW 11/0 (13/0) 16(61) 84 1018 / 30.05
 22:02 Mostly Cloudy Showers NNW 11/0 (13/0) 16(61) 81 1018 / 30.05
 21:55 Mostly Cloudy Showers NW 12/0 (14/0) 16(61) 82 1018 / 30.05
 21:27 Mostly Cloudy Showers NW 12/0 (14/0) 16(60) 90 1018 / 30.05
 21:01 Mostly Cloudy Showers WNW 20/0 (23/0) 16(60) 87 1018 / 30.06
 20:55 Mostly Cloudy Showers NW 14/0 (16/0) 17(62) 79 1018 / 30.06
 19:55 Mostly Cloudy Showers NW 16/0 (18/0) 17(62) 74 1018 / 30.05
 18:55 Mostly Cloudy Showers WNW 17/0 (20/0) 17(63) 70 1017 / 30.02
 17:55 Mostly Cloudy Showers W 20/0 (23/0) 16(61) 75 1016 / 30.01
 17:35 Mostly Cloudy Showers NW 18/0 (21/0) 17(62) 71 1016 / 30.00
 16:55 Mostly Cloudy Showers WNW 18/0 (21/0) 17(63) 65 1016 / 30.00
 15:55 Mostly Cloudy  WNW 19/0 (22/0) 17(63) 65 1016 / 29.99
 14:55 Mostly Cloudy Showers WNW 20/0 (23/0) 18(64) 64 1015 / 29.98
 13:55 Mostly Cloudy Showers WNW 21/0 (24/0) 17(63) 66 1015 / 29.98
 12:55 Mostly Cloudy Showers WNW 20/30 (23/35) 17(63) 66 1016 / 29.99
 11:55 Mostly Cloudy Showers WNW 21/0 (24/0) 16(61) 74 1017 / 30.02
 11:20 Mostly Cloudy Showers NW 17/0 (20/0) 16(61) 71 1017 / 30.03
 11:04 Mostly Cloudy Showers NW 26/0 (30/0) 16(61) 74 1017 / 30.04
 10:55 Mostly Cloudy Showers WNW 22/0 (25/0) 17(63) 62 1017 / 30.03
 09:55 Mostly Cloudy Showers WNW 17/0 (20/0) 17(62) 62 1017 / 30.03
 08:55 Mostly Cloudy Showers WNW 19/0 (22/0) 17(62) 59 1017 / 30.02
 07:55 Mostly Cloudy Showers WNW 22/0 (25/0) 16(61) 62 1016 / 30.01
 07:36 Mostly Cloudy Showers NW 23/0 (26/0) 16(61) 59 1016 / 30.00
 07:14 Mostly Cloudy Showers WNW 22/0 (25/0) 15(59) 70 1016 / 30.00
 06:55 Mostly Cloudy  WNW 19/0 (22/0) 16(61) 55 1016 / 29.99
 05:55 Mostly Cloudy Showers NW 18/0 (21/0) 15(59) 71 1015 / 29.98
 04:55 Mostly Cloudy  NW 20/0 (23/0) 16(60) 59 1015 / 29.96
 03:55 Mostly Cloudy Showers WNW 19/29 (22/33) 16(60) 66 1015 / 29.97
 02:55 Mostly Cloudy Showers NW 21/31 (24/36) 15(59) 68 1015 / 29.98
 02:44 Mostly Cloudy Showers NNW 22/0 (25/0) 15(59) 70 1015 / 29.98
 01:55 Mostly Cloudy  WNW 21/0 (24/0) 15(60) 59 1015 / 29.97
 00:55 Mostly Cloudy  WNW 20/0 (23/0) 16(60) 59 1015 / 29.98
 23:55 Mostly Cloudy Showers WNW 20/0 (23/0) 15(59) 64 1016 / 29.99
 22:55 Mostly Cloudy Showers WNW 22/0 (25/0) 15(59) 67 1016 / 30.00
 22:03 Mostly Cloudy Showers NW 18/0 (21/0) 14(58) 71 1016 / 30.01
 21:55 Mostly Cloudy Showers WNW 22/0 (25/0) 14(57) 74 1016 / 30.01
 21:46 Mostly Cloudy Showers WNW 23/0 (26/0) 14(58) 73 1016 / 30.01
 20:55 Mostly Cloudy Showers WNW 20/30 (23/35) 14(58) 71 1016 / 30.00
 20:47 Mostly Cloudy Showers NW 16/0 (18/0) 14(58) 73 1016 / 30.00
 20:39 Mostly Cloudy Showers WNW 21/0 (24/0) 15(59) 68 1016 / 30.00
 19:55 Mostly Cloudy Showers NW 21/0 (24/0) 15(59) 64 1016 / 29.99
 18:58 Mostly Cloudy Showers NW 20/0 (23/0) 15(59) 63 1016 / 29.99
 18:55 Mostly Cloudy Showers WNW 22/0 (25/0) 15(59) 68 1016 / 29.99
 17:55 Mostly Cloudy Showers WNW 22/0 (25/0) 16(60) 56 1015 / 29.96
 17:44 Mostly Cloudy Showers NW 23/0 (26/0) 16(60) 60 1015 / 29.97
 17:02 Mostly Cloudy Showers NW 23/0 (26/0) 16(60) 60 1015 / 29.96
 16:55 Mostly Cloudy Showers WNW 23/0 (26/0) 15(60) 64 1015 / 29.96
 16:38 Mostly Cloudy Showers NW 23/0 (26/0) 15(59) 63 1015 / 29.96
 16:31 Mostly Cloudy Showers NW 19/0 (22/0) 15(59) 67 1015 / 29.96
 15:55 Mostly Cloudy Showers WNW 21/0 (24/0) 16(60) 58 1015 / 29.96
 14:55 Mostly Cloudy  WNW 24/0 (28/0) 16(60) 57 1014 / 29.95
 14:05 Mostly Cloudy Showers NW 19/0 (22/0) 15(59) 63 1014 / 29.95
 13:55 Mostly Cloudy Showers WNW 24/0 (28/0) 16(60) 63 1014 / 29.95
 12:55 Mostly Cloudy  WNW 23/0 (26/0) 16(60) 56 1015 / 29.97
 11:55 Mostly Cloudy  WNW 21/0 (24/0) 16(61) 51 1016 / 30.00
 11:23 Mostly Cloudy Showers NW 20/0 (23/0) 15(59) 57 1017 / 30.02
 11:18 Mostly Cloudy Showers NW 20/0 (23/0) 15(59) 62 1017 / 30.02
 10:55 Mostly Cloudy  NW 20/0 (23/0) 16(61) 54 1017 / 30.02
 09:55 Mostly Cloudy Showers WNW 20/0 (23/0) 15(59) 59 1016 / 30.01
 08:55 Mostly Cloudy  WNW 18/0 (21/0) 15(59) 55 1016 / 29.99
Island AWOS